sensor_id;sensor_type;location;lat;lon;timestamp;P1;durP1;ratioP1;P2;durP2;ratioP2
34302;SDS011;20785;50.020;19.916;2022-12-29T00:04:15;10.23;;;4.33;;
34302;SDS011;20785;50.020;19.916;2022-12-29T00:10:16;8.88;;;3.20;;
34302;SDS011;20785;50.020;19.916;2022-12-29T00:16:18;8.38;;;3.80;;
34302;SDS011;20785;50.020;19.916;2022-12-29T00:22:19;6.70;;;3.30;;
34302;SDS011;20785;50.020;19.916;2022-12-29T00:28:25;8.63;;;3.58;;
34302;SDS011;20785;50.020;19.916;2022-12-29T00:34:45;8.10;;;3.35;;
34302;SDS011;20785;50.020;19.916;2022-12-29T00:41:04;8.10;;;3.05;;
34302;SDS011;20785;50.020;19.916;2022-12-29T00:47:24;7.70;;;3.08;;
34302;SDS011;20785;50.020;19.916;2022-12-29T00:53:25;7.78;;;3.00;;
34302;SDS011;20785;50.020;19.916;2022-12-29T00:59:26;6.60;;;2.83;;
34302;SDS011;20785;50.020;19.916;2022-12-29T01:05:27;7.58;;;3.00;;
34302;SDS011;20785;50.020;19.916;2022-12-29T01:11:28;7.47;;;2.90;;
34302;SDS011;20785;50.020;19.916;2022-12-29T01:17:34;7.17;;;3.12;;
34302;SDS011;20785;50.020;19.916;2022-12-29T01:23:36;6.47;;;2.55;;
34302;SDS011;20785;50.020;19.916;2022-12-29T01:29:37;5.92;;;2.62;;
34302;SDS011;20785;50.020;19.916;2022-12-29T01:35:39;5.33;;;2.05;;
34302;SDS011;20785;50.020;19.916;2022-12-29T01:41:40;9.70;;;2.15;;
34302;SDS011;20785;50.020;19.916;2022-12-29T01:47:43;6.22;;;2.20;;
34302;SDS011;20785;50.020;19.916;2022-12-29T01:53:52;4.03;;;2.05;;
34302;SDS011;20785;50.020;19.916;2022-12-29T02:00:02;3.70;;;1.85;;
34302;SDS011;20785;50.020;19.916;2022-12-29T02:06:23;4.17;;;1.90;;
34302;SDS011;20785;50.020;19.916;2022-12-29T02:12:26;4.28;;;1.90;;
34302;SDS011;20785;50.020;19.916;2022-12-29T02:24:43;5.40;;;2.22;;
34302;SDS011;20785;50.020;19.916;2022-12-29T02:30:46;2.95;;;1.75;;
34302;SDS011;20785;50.020;19.916;2022-12-29T02:36:54;3.65;;;1.65;;
34302;SDS011;20785;50.020;19.916;2022-12-29T02:49:08;4.58;;;2.10;;
34302;SDS011;20785;50.020;19.916;2022-12-29T02:55:11;6.37;;;2.70;;
34302;SDS011;20785;50.020;19.916;2022-12-29T03:07:39;16.52;;;5.37;;
34302;SDS011;20785;50.020;19.916;2022-12-29T03:13:51;9.70;;;4.67;;
34302;SDS011;20785;50.020;19.916;2022-12-29T03:20:14;11.57;;;6.00;;
34302;SDS011;20785;50.020;19.916;2022-12-29T03:26:17;14.00;;;6.83;;
34302;SDS011;20785;50.020;19.916;2022-12-29T03:32:23;9.38;;;5.67;;
34302;SDS011;20785;50.020;19.916;2022-12-29T03:38:47;11.25;;;5.90;;
34302;SDS011;20785;50.020;19.916;2022-12-29T03:44:49;11.68;;;5.53;;
34302;SDS011;20785;50.020;19.916;2022-12-29T03:50:54;8.30;;;4.40;;
34302;SDS011;20785;50.020;19.916;2022-12-29T03:56:57;8.85;;;4.25;;
34302;SDS011;20785;50.020;19.916;2022-12-29T04:02:59;8.05;;;4.33;;
34302;SDS011;20785;50.020;19.916;2022-12-29T04:09:01;9.73;;;5.17;;
34302;SDS011;20785;50.020;19.916;2022-12-29T04:15:05;9.20;;;4.33;;
34302;SDS011;20785;50.020;19.916;2022-12-29T04:21:07;8.60;;;4.20;;
34302;SDS011;20785;50.020;19.916;2022-12-29T04:27:10;9.08;;;4.30;;
34302;SDS011;20785;50.020;19.916;2022-12-29T04:33:16;8.95;;;4.08;;
34302;SDS011;20785;50.020;19.916;2022-12-29T04:39:17;7.25;;;3.47;;
34302;SDS011;20785;50.020;19.916;2022-12-29T04:45:19;4.83;;;2.70;;
34302;SDS011;20785;50.020;19.916;2022-12-29T04:57:26;4.35;;;2.02;;
34302;SDS011;20785;50.020;19.916;2022-12-29T05:03:29;4.90;;;2.30;;
34302;SDS011;20785;50.020;19.916;2022-12-29T05:09:30;3.17;;;1.80;;
34302;SDS011;20785;50.020;19.916;2022-12-29T05:15:33;5.60;;;2.17;;
34302;SDS011;20785;50.020;19.916;2022-12-29T05:21:34;6.53;;;2.50;;
34302;SDS011;20785;50.020;19.916;2022-12-29T05:27:36;4.22;;;1.98;;
34302;SDS011;20785;50.020;19.916;2022-12-29T05:33:45;5.08;;;2.17;;
34302;SDS011;20785;50.020;19.916;2022-12-29T05:39:47;4.55;;;2.08;;
34302;SDS011;20785;50.020;19.916;2022-12-29T05:45:48;3.08;;;1.70;;
34302;SDS011;20785;50.020;19.916;2022-12-29T05:58:43;5.65;;;2.12;;
34302;SDS011;20785;50.020;19.916;2022-12-29T06:04:45;4.15;;;1.85;;
34302;SDS011;20785;50.020;19.916;2022-12-29T06:10:47;4.42;;;2.02;;
34302;SDS011;20785;50.020;19.916;2022-12-29T06:16:49;5.37;;;1.98;;
34302;SDS011;20785;50.020;19.916;2022-12-29T06:22:51;5.28;;;2.05;;
34302;SDS011;20785;50.020;19.916;2022-12-29T06:28:52;5.22;;;2.67;;
34302;SDS011;20785;50.020;19.916;2022-12-29T06:34:53;4.37;;;2.12;;
34302;SDS011;20785;50.020;19.916;2022-12-29T06:40:55;4.03;;;1.90;;
34302;SDS011;20785;50.020;19.916;2022-12-29T06:46:58;6.40;;;3.22;;
34302;SDS011;20785;50.020;19.916;2022-12-29T06:52:59;4.85;;;2.42;;
34302;SDS011;20785;50.020;19.916;2022-12-29T06:59:01;5.00;;;2.35;;
34302;SDS011;20785;50.020;19.916;2022-12-29T07:05:03;8.48;;;2.55;;
34302;SDS011;20785;50.020;19.916;2022-12-29T07:11:04;5.33;;;2.50;;
34302;SDS011;20785;50.020;19.916;2022-12-29T07:17:06;5.70;;;2.00;;
34302;SDS011;20785;50.020;19.916;2022-12-29T07:23:07;3.27;;;1.98;;
34302;SDS011;20785;50.020;19.916;2022-12-29T07:29:09;5.25;;;2.42;;
34302;SDS011;20785;50.020;19.916;2022-12-29T07:35:10;5.70;;;2.50;;
34302;SDS011;20785;50.020;19.916;2022-12-29T07:41:11;6.87;;;2.65;;
34302;SDS011;20785;50.020;19.916;2022-12-29T07:47:12;6.70;;;3.12;;
34302;SDS011;20785;50.020;19.916;2022-12-29T07:53:14;8.60;;;2.72;;
34302;SDS011;20785;50.020;19.916;2022-12-29T07:59:15;7.10;;;2.70;;
34302;SDS011;20785;50.020;19.916;2022-12-29T08:05:16;10.55;;;2.83;;
34302;SDS011;20785;50.020;19.916;2022-12-29T08:11:17;4.50;;;2.25;;
34302;SDS011;20785;50.020;19.916;2022-12-29T08:17:18;7.67;;;2.35;;
34302;SDS011;20785;50.020;19.916;2022-12-29T08:23:20;9.15;;;3.00;;
34302;SDS011;20785;50.020;19.916;2022-12-29T08:29:21;7.58;;;3.30;;
34302;SDS011;20785;50.020;19.916;2022-12-29T08:35:22;6.22;;;2.77;;
34302;SDS011;20785;50.020;19.916;2022-12-29T08:41:24;8.15;;;3.22;;
34302;SDS011;20785;50.020;19.916;2022-12-29T08:47:25;6.42;;;2.75;;
34302;SDS011;20785;50.020;19.916;2022-12-29T08:53:27;4.12;;;2.25;;
34302;SDS011;20785;50.020;19.916;2022-12-29T08:59:28;4.92;;;2.77;;
34302;SDS011;20785;50.020;19.916;2022-12-29T09:05:29;7.20;;;2.95;;
34302;SDS011;20785;50.020;19.916;2022-12-29T09:11:30;8.73;;;3.50;;
34302;SDS011;20785;50.020;19.916;2022-12-29T09:17:31;7.25;;;3.02;;
34302;SDS011;20785;50.020;19.916;2022-12-29T09:23:45;9.25;;;3.30;;
34302;SDS011;20785;50.020;19.916;2022-12-29T09:29:47;8.13;;;3.05;;
34302;SDS011;20785;50.020;19.916;2022-12-29T09:35:52;8.50;;;2.95;;
34302;SDS011;20785;50.020;19.916;2022-12-29T09:42:06;6.20;;;2.83;;
34302;SDS011;20785;50.020;19.916;2022-12-29T09:48:17;5.05;;;2.70;;
34302;SDS011;20785;50.020;19.916;2022-12-29T10:00:46;7.55;;;2.77;;
34302;SDS011;20785;50.020;19.916;2022-12-29T10:06:53;8.95;;;2.62;;
34302;SDS011;20785;50.020;19.916;2022-12-29T10:13:03;5.75;;;2.35;;
34302;SDS011;20785;50.020;19.916;2022-12-29T10:19:13;6.20;;;2.90;;
34302;SDS011;20785;50.020;19.916;2022-12-29T10:25:26;6.12;;;2.83;;
34302;SDS011;20785;50.020;19.916;2022-12-29T10:31:34;7.47;;;3.17;;
34302;SDS011;20785;50.020;19.916;2022-12-29T10:43:55;7.60;;;3.52;;
34302;SDS011;20785;50.020;19.916;2022-12-29T10:49:57;7.85;;;4.00;;
34302;SDS011;20785;50.020;19.916;2022-12-29T10:56:01;8.55;;;3.98;;
34302;SDS011;20785;50.020;19.916;2022-12-29T11:08:10;8.83;;;3.33;;
34302;SDS011;20785;50.020;19.916;2022-12-29T11:14:18;8.05;;;3.47;;
34302;SDS011;20785;50.020;19.916;2022-12-29T11:20:29;5.37;;;3.25;;
34302;SDS011;20785;50.020;19.916;2022-12-29T11:26:32;5.00;;;2.92;;
34302;SDS011;20785;50.020;19.916;2022-12-29T11:32:33;7.17;;;3.17;;
34302;SDS011;20785;50.020;19.916;2022-12-29T11:38:36;5.12;;;3.15;;
34302;SDS011;20785;50.020;19.916;2022-12-29T11:44:42;8.03;;;3.47;;
34302;SDS011;20785;50.020;19.916;2022-12-29T11:50:48;5.75;;;2.87;;
34302;SDS011;20785;50.020;19.916;2022-12-29T11:56:50;6.37;;;3.55;;
34302;SDS011;20785;50.020;19.916;2022-12-29T12:09:08;6.70;;;2.80;;
34302;SDS011;20785;50.020;19.916;2022-12-29T12:15:19;5.37;;;2.50;;
34302;SDS011;20785;50.020;19.916;2022-12-29T12:21:31;7.37;;;3.15;;
34302;SDS011;20785;50.020;19.916;2022-12-29T12:27:37;4.97;;;2.77;;
34302;SDS011;20785;50.020;19.916;2022-12-29T12:33:41;6.97;;;3.20;;
34302;SDS011;20785;50.020;19.916;2022-12-29T12:58:35;6.87;;;3.33;;
34302;SDS011;20785;50.020;19.916;2022-12-29T13:17:03;6.80;;;3.37;;
34302;SDS011;20785;50.020;19.916;2022-12-29T13:23:14;6.87;;;3.40;;
34302;SDS011;20785;50.020;19.916;2022-12-29T13:29:23;9.65;;;3.90;;
34302;SDS011;20785;50.020;19.916;2022-12-29T13:41:42;6.45;;;3.65;;
34302;SDS011;20785;50.020;19.916;2022-12-29T13:47:46;8.03;;;4.10;;
34302;SDS011;20785;50.020;19.916;2022-12-29T13:53:54;6.80;;;3.22;;
34302;SDS011;20785;50.020;19.916;2022-12-29T13:59:58;6.30;;;3.35;;
34302;SDS011;20785;50.020;19.916;2022-12-29T14:12:30;6.55;;;2.95;;
34302;SDS011;20785;50.020;19.916;2022-12-29T14:18:41;6.08;;;3.12;;
34302;SDS011;20785;50.020;19.916;2022-12-29T14:24:44;5.17;;;2.85;;
34302;SDS011;20785;50.020;19.916;2022-12-29T14:30:47;5.08;;;2.72;;
34302;SDS011;20785;50.020;19.916;2022-12-29T14:36:54;6.08;;;2.87;;
34302;SDS011;20785;50.020;19.916;2022-12-29T14:48:57;6.62;;;3.52;;
34302;SDS011;20785;50.020;19.916;2022-12-29T14:55:46;6.30;;;3.33;;
34302;SDS011;20785;50.020;19.916;2022-12-29T15:07:23;9.53;;;4.22;;
34302;SDS011;20785;50.020;19.916;2022-12-29T15:13:32;9.05;;;4.22;;
34302;SDS011;20785;50.020;19.916;2022-12-29T15:19:34;9.70;;;4.15;;
34302;SDS011;20785;50.020;19.916;2022-12-29T15:25:45;10.68;;;3.95;;
34302;SDS011;20785;50.020;19.916;2022-12-29T15:31:51;9.25;;;4.20;;
34302;SDS011;20785;50.020;19.916;2022-12-29T15:37:52;10.72;;;3.98;;
34302;SDS011;20785;50.020;19.916;2022-12-29T15:56:29;9.48;;;4.12;;
34302;SDS011;20785;50.020;19.916;2022-12-29T16:02:31;11.68;;;5.50;;
34302;SDS011;20785;50.020;19.916;2022-12-29T16:08:34;11.20;;;5.75;;
34302;SDS011;20785;50.020;19.916;2022-12-29T16:14:40;11.08;;;5.47;;
34302;SDS011;20785;50.020;19.916;2022-12-29T16:20:43;11.38;;;6.03;;
34302;SDS011;20785;50.020;19.916;2022-12-29T16:26:50;14.28;;;6.78;;
34302;SDS011;20785;50.020;19.916;2022-12-29T16:32:56;12.55;;;6.50;;
34302;SDS011;20785;50.020;19.916;2022-12-29T16:39:04;11.57;;;5.62;;
34302;SDS011;20785;50.020;19.916;2022-12-29T16:45:19;12.85;;;6.47;;
34302;SDS011;20785;50.020;19.916;2022-12-29T16:51:30;15.68;;;7.15;;
34302;SDS011;20785;50.020;19.916;2022-12-29T16:57:34;14.50;;;6.85;;
34302;SDS011;20785;50.020;19.916;2022-12-29T17:03:41;12.88;;;6.40;;
34302;SDS011;20785;50.020;19.916;2022-12-29T17:09:43;12.07;;;6.47;;
34302;SDS011;20785;50.020;19.916;2022-12-29T17:15:46;11.97;;;6.37;;
34302;SDS011;20785;50.020;19.916;2022-12-29T17:21:47;13.62;;;6.50;;
34302;SDS011;20785;50.020;19.916;2022-12-29T17:27:55;13.38;;;6.37;;
34302;SDS011;20785;50.020;19.916;2022-12-29T17:33:58;13.22;;;6.17;;
34302;SDS011;20785;50.020;19.916;2022-12-29T17:40:01;14.18;;;6.47;;
34302;SDS011;20785;50.020;19.916;2022-12-29T17:46:06;11.68;;;6.00;;
34302;SDS011;20785;50.020;19.916;2022-12-29T17:52:08;13.10;;;6.28;;
34302;SDS011;20785;50.020;19.916;2022-12-29T17:58:17;14.68;;;6.72;;
34302;SDS011;20785;50.020;19.916;2022-12-29T18:10:29;15.48;;;6.58;;
34302;SDS011;20785;50.020;19.916;2022-12-29T18:16:30;12.68;;;6.30;;
34302;SDS011;20785;50.020;19.916;2022-12-29T18:22:31;11.97;;;5.80;;
34302;SDS011;20785;50.020;19.916;2022-12-29T18:28:35;12.60;;;6.62;;
34302;SDS011;20785;50.020;19.916;2022-12-29T18:34:39;14.25;;;7.12;;
34302;SDS011;20785;50.020;19.916;2022-12-29T18:46:46;13.93;;;6.42;;
34302;SDS011;20785;50.020;19.916;2022-12-29T18:52:49;14.23;;;7.10;;
34302;SDS011;20785;50.020;19.916;2022-12-29T18:58:50;16.75;;;7.22;;
34302;SDS011;20785;50.020;19.916;2022-12-29T19:04:53;16.00;;;7.58;;
34302;SDS011;20785;50.020;19.916;2022-12-29T19:10:56;19.82;;;8.15;;
34302;SDS011;20785;50.020;19.916;2022-12-29T19:16:59;18.25;;;7.72;;
34302;SDS011;20785;50.020;19.916;2022-12-29T19:23:07;16.00;;;7.58;;
34302;SDS011;20785;50.020;19.916;2022-12-29T19:29:14;15.20;;;7.05;;
34302;SDS011;20785;50.020;19.916;2022-12-29T19:35:15;15.32;;;7.62;;
34302;SDS011;20785;50.020;19.916;2022-12-29T19:41:17;15.72;;;7.70;;
34302;SDS011;20785;50.020;19.916;2022-12-29T19:47:18;14.45;;;7.03;;
34302;SDS011;20785;50.020;19.916;2022-12-29T19:53:19;14.28;;;6.97;;
34302;SDS011;20785;50.020;19.916;2022-12-29T19:59:20;13.98;;;7.15;;
34302;SDS011;20785;50.020;19.916;2022-12-29T20:05:21;16.70;;;6.55;;
34302;SDS011;20785;50.020;19.916;2022-12-29T20:11:23;15.10;;;6.72;;
34302;SDS011;20785;50.020;19.916;2022-12-29T20:17:25;15.10;;;7.15;;
34302;SDS011;20785;50.020;19.916;2022-12-29T20:23:26;12.60;;;6.83;;
34302;SDS011;20785;50.020;19.916;2022-12-29T20:29:34;15.08;;;6.53;;
34302;SDS011;20785;50.020;19.916;2022-12-29T20:35:40;15.10;;;7.05;;
34302;SDS011;20785;50.020;19.916;2022-12-29T20:41:45;13.85;;;7.33;;
34302;SDS011;20785;50.020;19.916;2022-12-29T20:47:48;13.78;;;6.80;;
34302;SDS011;20785;50.020;19.916;2022-12-29T20:53:49;14.55;;;6.67;;
34302;SDS011;20785;50.020;19.916;2022-12-29T20:59:54;15.10;;;6.17;;
34302;SDS011;20785;50.020;19.916;2022-12-29T21:06:02;13.50;;;5.97;;
34302;SDS011;20785;50.020;19.916;2022-12-29T21:12:07;15.32;;;6.83;;
34302;SDS011;20785;50.020;19.916;2022-12-29T21:18:10;13.50;;;6.72;;
34302;SDS011;20785;50.020;19.916;2022-12-29T21:24:15;12.85;;;6.58;;
34302;SDS011;20785;50.020;19.916;2022-12-29T21:30:16;13.35;;;6.00;;
34302;SDS011;20785;50.020;19.916;2022-12-29T21:36:21;13.40;;;6.67;;
34302;SDS011;20785;50.020;19.916;2022-12-29T21:42:22;12.35;;;6.30;;
34302;SDS011;20785;50.020;19.916;2022-12-29T21:48:25;12.68;;;5.92;;
34302;SDS011;20785;50.020;19.916;2022-12-29T21:54:30;15.38;;;7.12;;
34302;SDS011;20785;50.020;19.916;2022-12-29T22:00:52;12.10;;;6.42;;
34302;SDS011;20785;50.020;19.916;2022-12-29T22:07:12;12.23;;;6.45;;
34302;SDS011;20785;50.020;19.916;2022-12-29T22:13:37;14.53;;;7.20;;
34302;SDS011;20785;50.020;19.916;2022-12-29T22:19:35;18.85;;;8.63;;
34302;SDS011;20785;50.020;19.916;2022-12-29T22:25:37;19.05;;;8.58;;
34302;SDS011;20785;50.020;19.916;2022-12-29T22:31:41;18.80;;;9.08;;
34302;SDS011;20785;50.020;19.916;2022-12-29T22:37:42;21.60;;;9.38;;
34302;SDS011;20785;50.020;19.916;2022-12-29T22:43:44;19.32;;;9.50;;
34302;SDS011;20785;50.020;19.916;2022-12-29T22:49:45;19.55;;;9.78;;
34302;SDS011;20785;50.020;19.916;2022-12-29T22:55:49;20.57;;;9.45;;
34302;SDS011;20785;50.020;19.916;2022-12-29T23:01:51;19.00;;;9.30;;
34302;SDS011;20785;50.020;19.916;2022-12-29T23:07:52;21.73;;;9.70;;
34302;SDS011;20785;50.020;19.916;2022-12-29T23:13:53;22.80;;;9.60;;
34302;SDS011;20785;50.020;19.916;2022-12-29T23:19:56;21.57;;;9.98;;
34302;SDS011;20785;50.020;19.916;2022-12-29T23:25:59;20.43;;;10.53;;
34302;SDS011;20785;50.020;19.916;2022-12-29T23:32:00;21.42;;;9.93;;
34302;SDS011;20785;50.020;19.916;2022-12-29T23:38:01;21.02;;;10.23;;
34302;SDS011;20785;50.020;19.916;2022-12-29T23:44:02;21.07;;;10.98;;
34302;SDS011;20785;50.020;19.916;2022-12-29T23:50:04;24.47;;;10.95;;
34302;SDS011;20785;50.020;19.916;2022-12-29T23:56:06;23.85;;;11.30;;
